ADDS METAR Data INFO
IDs: Format: Raw Decoded Include TAF

Data at: 1021 UTC 12 Dec 2017

KGLR 121016Z AUTO 34009G21KT 290V020 1/2SM SN BKN013 OVC036 M12/M15 A2976 RMK AO2 UPE0956SNB03 P0000 T11221150 $
KGLR 121011Z AUTO 34009G21KT 300V020 1 1/2SM -SN SCT020 SCT029 OVC036 M12/M16 A2975 RMK AO2 UPE0956SNB03 P0000 T11171161 $
KGLR 120953Z AUTO 32011G22KT 6SM UP SCT028 OVC034 M12/M17 A2974 RMK AO2 UPB45SNB10E12 SLP097 P0000 T11171167 $
KGLR 120914Z AUTO 33011G22KT 4SM UP OVC028 M11/M16 A2974 RMK AO2 SNB10E12 P0000 T11111161 $
KGLR 120853Z AUTO 4SM UP M11/M16 A2973 RMK AO2 PK WND 33029/0847 UPB27B47SNE27 SLP093 P0000 60000 T11061156 $
KGLR 120824Z AUTO 32013G21KT 3SM -SN BKN018 BKN025 OVC030 M11/M15 A2973 RMK AO2 P0000 T11061150
KGLR 120817Z AUTO 32010G22KT 1 1/4SM -SN BKN018 OVC025 M11/M14 A2972 RMK AO2 P0000 T11061139
KGLR 120809Z AUTO 32009G25KT 280V350 3/4SM -SN BKN016 OVC025 M10/M13 A2972 RMK AO2 P0000 T11001133
KGLR 120753Z AUTO 32010G19KT 290V350 1 1/2SM -SN BKN016 BKN025 OVC030 M09/M13 A2971 RMK AO2 SLP085 P0000 T10941128
KGLR 120740Z AUTO 32008G21KT 1SM -SN BKN016 BKN025 OVC032 M09/M12 A2970 RMK AO2 P0000 T10941122
KGLR 120731Z AUTO 33009G18KT 300V010 3/4SM -SN BKN016 OVC025 M09/M12 A2970 RMK AO2 P0000 T10941122
KGLR 120704Z AUTO 31008G16KT 1 3/4SM -SN BKN018 BKN024 OVC033 M09/M13 A2969 RMK AO2 P0000 T10891128
KGLR 120653Z AUTO 31008G27KT 3/4SM -SN BKN017 OVC027 M09/M12 A2969 RMK AO2 PK WND 31027/0647 SNB0555 SLP078 P0000 T10891122
KGLR 120642Z AUTO 32007G22KT 280V350 1 1/4SM -SN OVC017 M08/M12 A2969 RMK AO2 SNB0555 P0000 T10831117
KGLR 120613Z AUTO 30009G22KT 270V340 3/4SM -SN BKN020 OVC033 M08/M11 A2968 RMK AO2 SNB0555 P0000 T10781111
KGLR 120602Z AUTO 32011G19KT 1 3/4SM -SN BKN023 OVC036 M07/M12 A2968 RMK AO2 SNB0555 P0000 T10721117
KGLR 120553Z AUTO 32012G20KT 280V340 5SM HZ BKN027 OVC041 M07/M12 A2968 RMK AO2 PK WND 29026/0541 SNE47 SLP072 P0000 60002 T10721122 11044 21072 51011
KGLR 120548Z AUTO 32008G26KT 290V360 5SM HZ SCT027 BKN036 OVC043 M07/M12 A2967 RMK AO2 PK WND 29026/0541 SNE47 P0000
KGLR 120538Z AUTO 32011G18KT 4SM -SN OVC028 M07/M12 A2967 RMK AO2 P0000 T10671117
KGLR 120528Z AUTO 33010G25KT 290V010 4SM -SN OVC031 M07/M12 A2967 RMK AO2 P0000 T10671117
KGLR 120521Z AUTO 31008G24KT 2 1/2SM -SN OVC031 M07/M12 A2967 RMK AO2 P0000 T10671117
KGLR 120510Z AUTO 33011G21KT 300V020 3SM -SN OVC031 M07/M11 A2967 RMK AO2 P0000 T10671111
KGLR 120453Z AUTO 32015G25KT 2 1/2SM -SN FEW025 OVC031 M06/M11 A2966 RMK AO2 VIS 1 1/4V4 SLP066 P0000 T10611106 410441111
KGLR 120431Z AUTO 33012G21KT 300V020 3SM -SN FEW020 BKN031 OVC047 M06/M09 A2965 RMK AO2 P0000 T10561094
KGLR 120412Z AUTO 32013G20KT 2 1/2SM -SN FEW012 SCT020 OVC035 M05/M08 A2965 RMK AO2 VIS 2V3 P0000 T10501083
KGLR 120359Z AUTO 33009G23KT 290V010 2SM -SN BR SCT014 BKN021 OVC035 M05/M07 A2964 RMK AO2 P0000 T10501072
KGLR 120353Z AUTO 32009G23KT 1 3/4SM -SN BKN014 OVC023 M04/M07 A2964 RMK AO2 SLP058 P0001 T10441072
KGLR 120335Z AUTO 30007KT 1 3/4SM -SN BR BKN011 OVC019 M04/M07 A2964 RMK AO2 P0001 T10441067
KGLR 120253Z AUTO 26005KT 3SM -SN BR BKN012 OVC021 M06/M08 A2964 RMK AO2 SLP060 P0000 60001 T10611078 56004
KGLR 120234Z AUTO 27004KT 2 1/2SM -SN BR OVC010 M07/M08 A2965 RMK AO2 CIG 007V013 P0000 T10671078
KGLR 120220Z AUTO 28005KT 1 3/4SM -SN BR OVC007 M06/M08 A2965 RMK AO2 CIG 006V012 P0000 T10611078
KGLR 120153Z AUTO 24007KT 5SM -SN BR OVC007 M07/M08 A2964 RMK AO2 SLP062 P0001 T10671083
KGLR 120053Z AUTO 21007KT 7SM -SN OVC008 M07/M08 A2964 RMK AO2 SNB10E24B30 SLP061 P0000 T10671083
KGLR 120025Z AUTO 20008KT 9SM OVC009 M07/M09 A2965 RMK AO2 SNB10E24 P0000 T10671089
KGLR 112353Z AUTO 19008KT 10SM OVC011 M07/M09 A2966 RMK AO2 SNE07 SLP066 P0000 60001 T10721089 11072 21078 56014
KGLR 112327Z AUTO 19009KT 10SM OVC013 M07/M09 A2966 RMK AO2 SNE07 P0000 T10721094
KGLR 112253Z AUTO 18007KT 3SM -SN BR BKN019 OVC026 M07/M09 A2966 RMK AO2 SLP068 P0000 T10721094
KGLR 112240Z AUTO 18008KT 2 1/2SM -SN BR BKN023 OVC035 M07/M09 A2967 RMK AO2 P0000 T10721094
KGLR 112201Z AUTO 17007KT 1 1/2SM -SN BR OVC023 M07/M09 A2968 RMK AO2 P0000 T10721094
KGLR 112153Z AUTO 17008KT 3/4SM -SN BR VV019 M07/M09 A2968 RMK AO2 SLP075 P0001 T10721094
KGLR 112135Z AUTO 17007KT 1 3/4SM -SN BKN017 OVC022 M07/M10 A2969 RMK AO2 P0000 T10721100
KGLR 112112Z AUTO 17008KT 3SM -SN SCT018 BKN024 OVC029 M07/M10 A2969 RMK AO2 P0000 T10721100
KGLR 112053Z AUTO 17008KT 2SM -SN FEW013 OVC028 M07/M10 A2970 RMK AO2 SLP081 P0000 60000 T10721100 56031
KGLR 112021Z AUTO 17009KT 2SM -SN FEW013 BKN034 OVC043 M07/M10 A2970 RMK AO2 P0000 T10721100
KGLR 112007Z AUTO 16008KT 1 1/2SM -SN BR BKN034 OVC045 M08/M10 A2971 RMK AO2 P0000 T10781100
KGLR 111953Z AUTO 16007KT 2SM -SN BKN040 OVC050 M08/M11 A2972 RMK AO2 SLP088 P0000 T10781106
KGLR 111930Z AUTO 16010KT 5SM -SN BKN044 OVC055 M08/M11 A2972 RMK AO2 P0000 T10781106
KGLR 111923Z AUTO 16009KT 2 1/2SM -SN BKN041 OVC049 M08/M11 A2973 RMK AO2 P0000 T10781106
KGLR 111853Z AUTO 16010KT 1 1/2SM -SN BKN035 OVC044 M08/M11 A2974 RMK AO2 SLP096 P0000 T10781106
KGLR 111839Z AUTO 16007KT 2SM -SN BR BKN030 OVC042 M08/M11 A2975 RMK AO2 P0000 T10831106
KGLR 111753Z AUTO 16008KT 1SM -SN BR BKN020 OVC030 M08/M11 A2979 RMK AO2 SLP114 P0000 60000 T10831106 11083 21106 58032
KGLR 111733Z AUTO 16007KT 1 3/4SM -SN BKN024 OVC038 M08/M11 A2980 RMK AO2 P0000 T10831111
KGLR 111722Z AUTO 16009KT 1 3/4SM -SN FEW013 BKN033 OVC041 M08/M11 A2981 RMK AO2 P0000 T10831111
KGLR 111653Z AUTO 17009KT 1 1/4SM -SN BKN023 OVC033 M08/M11 A2983 RMK AO2 SLP127 P0000 T10831111
KGLR 111615Z AUTO 18007KT 1 3/4SM -SN BKN024 OVC048 M08/M12 A2986 RMK AO2 P0000 T10831117
KGLR 111553Z AUTO 19008KT 8SM -SN SCT050 BKN060 OVC075 M08/M12 A2987 RMK AO2 SNB52 SLP141 P0000 T10831117
KGLR 111453Z AUTO 17007KT 10SM FEW025 OVC075 M09/M12 A2989 RMK AO2 SLP148 T10941122 56003
KGLR 111449Z AUTO 17007KT 10SM SCT025 OVC075 M09/M12 A2989 RMK AO2
KGLR 111353Z AUTO 18008KT 10SM OVC025 M10/M12 A2990 RMK AO2 SLP151 T11001122 $
KGLR 111253Z AUTO 17005KT 10SM OVC026 M10/M13 A2990 RMK AO2 SLP151 T11001128 $
KGLR 111153Z AUTO 15005KT 9SM FEW020 OVC026 M10/M13 A2990 RMK AO2 SNB23E32 SLP152 P0000 60000 70002 T11001128 11100 21111 56016 $
KGLR 111053Z AUTO 16003KT 10SM OVC027 M10/M13 A2992 RMK AO2 SNE0957 SLP157 P0000 T11001133 $
KGLR 110953Z AUTO 14004KT 8SM -SN OVC027 M10/M13 A2991 RMK AO2 SNB29 SLP153 P0000 T11001133 $
KGLR 110853Z AUTO 23003KT 10SM OVC026 M11/M13 A2995 RMK AO2 SLP166 T11061133 50006 $
KGLR 110753Z AUTO 03003KT 10SM OVC027 M10/M14 A2996 RMK AO2 SLP168 T11001139 $
KGLR 110653Z AUTO 00000KT 10SM OVC024 M11/M14 A2995 RMK AO2 SLP166 T11061139 $
KGLR 110553Z AUTO 00000KT 10SM OVC025 M11/M14 A2993 RMK AO2 SNB04E15 SLP160 P0000 60000 T11061139 11078 21111 58000 $
KGLR 110453Z AUTO 00000KT 10SM OVC023 M11/M14 A2996 RMK AO2 SLP168 T11061139 410441111 $
KGLR 110353Z AUTO 00000KT 10SM OVC024 M11/M14 A2995 RMK AO2 SLP167 T11061144 $
KGLR 110253Z AUTO VRB03KT 10SM OVC024 M11/M14 A2994 RMK AO2 SLP163 60000 T11061144 50016 $
KGLR 110153Z AUTO VRB06KT 10SM OVC022 M10/M14 A2994 RMK AO2 SLP164 T11001144 $
KGLR 110053Z AUTO VRB05G16KT 10SM OVC021 M09/M14 A2992 RMK AO2 SNE00 SLP155 P0000 T10941139 $
KGLR 102353Z AUTO 33008KT 310V030 9SM -SN OVC017 M08/M12 A2989 RMK AO2 SNE2254B50 SLP144 P0000 60001 T10781117 11044 21078 53034 $
KGLR 102253Z AUTO VRB04KT 8SM -SN OVC019 M07/M10 A2985 RMK AO2 SLP130 P0001 T10721100 $
KGLR 102240Z AUTO VRB03KT 3SM -SN BR OVC019 M07/M09 A2984 RMK AO2 P0001 T10721094 $